createdAt,value
2018-06-14T00:00:19.010Z,16.70
2018-06-14T00:02:49.432Z,16.70
2018-06-14T00:05:19.813Z,16.70
2018-06-14T00:07:50.242Z,16.70
2018-06-14T00:10:20.589Z,16.70
2018-06-14T00:12:50.904Z,16.60
2018-06-14T00:15:21.313Z,16.60
2018-06-14T00:17:51.789Z,16.60
2018-06-14T00:20:22.292Z,16.60
2018-06-14T00:22:52.746Z,16.60
2018-06-14T00:25:23.248Z,16.60
2018-06-14T00:27:53.795Z,16.60
2018-06-14T00:30:24.300Z,16.50
2018-06-14T00:32:54.729Z,16.60
2018-06-14T00:35:25.200Z,16.60
2018-06-14T00:37:55.547Z,16.60
2018-06-14T00:40:26.029Z,16.60
2018-06-14T00:42:56.438Z,16.60
2018-06-14T00:45:26.934Z,16.60
2018-06-14T00:47:57.410Z,16.60
2018-06-14T00:50:27.956Z,16.60
2018-06-14T00:52:58.453Z,16.50
2018-06-14T00:55:29.089Z,16.50
2018-06-14T00:57:59.568Z,16.40
2018-06-14T01:00:29.987Z,16.40
2018-06-14T01:03:00.360Z,16.40
2018-06-14T01:05:30.823Z,16.40
2018-06-14T01:08:01.284Z,16.40
2018-06-14T01:10:31.727Z,16.40
2018-06-14T01:13:02.154Z,16.40
2018-06-14T01:15:32.656Z,16.40
2018-06-14T01:18:03.136Z,16.40
2018-06-14T01:20:33.639Z,16.40
2018-06-14T01:23:04.105Z,16.40
2018-06-14T01:25:34.583Z,16.40
2018-06-14T01:28:04.981Z,16.40
2018-06-14T01:30:35.383Z,16.40
2018-06-14T01:33:05.859Z,16.40
2018-06-14T01:35:36.311Z,16.40
2018-06-14T01:38:27.781Z,16.40
2018-06-14T01:40:58.243Z,16.40
2018-06-14T01:43:28.736Z,16.40
2018-06-14T01:45:59.114Z,16.40
2018-06-14T01:48:29.610Z,16.40
2018-06-14T01:51:00.061Z,16.40
2018-06-14T01:53:30.428Z,16.50
2018-06-14T01:56:00.859Z,16.50
2018-06-14T01:58:31.229Z,16.50
2018-06-14T02:01:02.002Z,16.40
2018-06-14T02:03:32.393Z,16.40
2018-06-14T02:06:02.814Z,16.40
2018-06-14T02:08:33.229Z,16.40
2018-06-14T02:11:03.670Z,16.40
2018-06-14T02:13:34.038Z,16.30
2018-06-14T02:16:04.480Z,16.30
2018-06-14T02:18:34.908Z,16.30
2018-06-14T02:21:05.295Z,16.20
2018-06-14T02:23:35.808Z,16.20
2018-06-14T02:26:07.242Z,16.20
2018-06-14T02:28:38.235Z,16.20
2018-06-14T02:31:08.891Z,16.20
2018-06-14T02:33:39.242Z,16.20
2018-06-14T02:36:09.750Z,16.20
2018-06-14T02:38:40.170Z,16.20
2018-06-14T02:41:10.600Z,16.20
2018-06-14T02:43:41.093Z,16.10
2018-06-14T02:46:12.038Z,16.20
2018-06-14T02:48:42.403Z,16.10
2018-06-14T02:51:12.802Z,16.10
2018-06-14T02:53:43.281Z,16.00
2018-06-14T02:56:13.687Z,16.10
2018-06-14T02:58:44.115Z,16.10
2018-06-14T03:01:14.452Z,16.10
2018-06-14T03:03:44.881Z,16.10
2018-06-14T03:06:15.372Z,16.10
2018-06-14T03:08:45.745Z,16.10
2018-06-14T03:11:16.167Z,16.10
2018-06-14T03:13:46.586Z,16.10
2018-06-14T03:16:17.031Z,16.10
2018-06-14T03:18:47.405Z,16.10
2018-06-14T03:21:17.757Z,16.10
2018-06-14T03:23:48.238Z,16.00
2018-06-14T03:26:18.655Z,16.10
2018-06-14T03:28:49.078Z,16.10
2018-06-14T03:31:19.443Z,16.00
2018-06-14T03:33:49.873Z,16.00
2018-06-14T03:36:20.370Z,15.90
2018-06-14T03:38:50.887Z,15.90
2018-06-14T03:41:21.225Z,15.90
2018-06-14T03:43:51.699Z,15.90
2018-06-14T03:46:22.177Z,15.90
2018-06-14T03:48:52.528Z,15.90
2018-06-14T03:51:22.962Z,15.90
2018-06-14T03:53:53.566Z,15.90
2018-06-14T03:56:23.975Z,15.90
2018-06-14T03:58:54.462Z,15.90
2018-06-14T04:01:24.902Z,15.90
2018-06-14T04:03:55.337Z,16.00
2018-06-14T04:06:25.744Z,16.00
2018-06-14T04:08:56.177Z,16.00
2018-06-14T04:11:26.544Z,16.00
2018-06-14T04:16:26.964Z,16.00
2018-06-14T04:18:57.459Z,16.10
2018-06-14T04:21:27.894Z,16.10
2018-06-14T04:23:58.337Z,16.00
2018-06-14T04:26:28.872Z,16.00
2018-06-14T04:28:59.231Z,16.00
2018-06-14T04:31:29.686Z,16.00
2018-06-14T04:34:00.231Z,16.00
2018-06-14T04:36:30.566Z,15.90
2018-06-14T04:39:00.972Z,15.90
2018-06-14T04:41:31.483Z,15.90
2018-06-14T04:44:01.849Z,16.00
2018-06-14T04:46:32.196Z,16.10
2018-06-14T04:49:02.625Z,16.10
2018-06-14T04:51:37.106Z,16.10
2018-06-14T04:54:07.470Z,16.20
2018-06-14T04:56:37.912Z,16.20
2018-06-14T04:59:09.143Z,16.10
2018-06-14T05:01:39.568Z,16.20
2018-06-14T05:04:10.008Z,16.30
2018-06-14T05:06:40.340Z,16.30
2018-06-14T05:09:13.264Z,16.30
2018-06-14T05:11:43.612Z,16.30
2018-06-14T05:14:14.065Z,16.30
2018-06-14T05:16:44.528Z,16.30
2018-06-14T05:19:14.880Z,16.40
2018-06-14T05:21:45.240Z,16.40
2018-06-14T05:24:15.684Z,16.50
2018-06-14T05:26:46.073Z,16.50
2018-06-14T05:29:16.524Z,16.50
2018-06-14T05:31:46.926Z,16.60
2018-06-14T05:34:17.387Z,16.70
2018-06-14T05:36:47.841Z,16.70
2018-06-14T05:39:18.293Z,16.70
2018-06-14T05:41:48.706Z,16.70
2018-06-14T05:44:19.101Z,16.70
2018-06-14T05:49:19.657Z,16.90
2018-06-14T05:51:50.065Z,16.90
2018-06-14T05:54:20.512Z,17.00
2018-06-14T05:56:50.909Z,17.00
2018-06-14T05:59:21.358Z,17.10
2018-06-14T06:01:51.776Z,17.10
2018-06-14T06:04:22.185Z,17.10
2018-06-14T06:06:53.397Z,17.10
2018-06-14T06:09:23.812Z,17.00
2018-06-14T06:11:54.228Z,17.00
2018-06-14T06:14:24.684Z,17.00
2018-06-14T06:16:55.062Z,17.10
2018-06-14T06:19:25.635Z,17.10
2018-06-14T06:21:55.987Z,17.20
2018-06-14T06:24:26.498Z,17.20
2018-06-14T10:03:44.228Z,19.40
2018-06-14T10:06:16.638Z,20.90
2018-06-14T10:08:48.992Z,21.00
2018-06-14T10:11:20.777Z,20.90
2018-06-14T10:13:52.394Z,20.90
2018-06-14T10:16:24.389Z,20.80
2018-06-14T10:18:55.468Z,20.70
2018-06-14T10:21:25.916Z,20.60
2018-06-14T10:26:26.727Z,20.50
2018-06-14T10:28:57.095Z,20.50
2018-06-14T10:31:28.123Z,20.40
2018-06-14T10:33:58.496Z,20.50
2018-06-14T10:36:30.014Z,20.50
2018-06-14T10:39:00.504Z,20.70
2018-06-14T10:41:30.930Z,20.90
2018-06-14T10:44:01.242Z,20.90
2018-06-14T10:46:32.281Z,21.00
2018-06-14T10:49:02.732Z,21.10
2018-06-14T10:51:34.136Z,21.00
2018-06-14T10:54:04.604Z,21.00
2018-06-14T10:56:35.122Z,20.90
2018-06-14T10:59:05.611Z,21.00
2018-06-14T11:01:36.859Z,21.00
2018-06-14T11:04:07.417Z,20.90
2018-06-14T11:06:37.861Z,20.80
2018-06-14T11:09:10.978Z,20.70
2018-06-14T11:11:43.295Z,20.90
2018-06-14T11:14:13.838Z,21.00
2018-06-14T11:16:44.433Z,21.00
2018-06-14T11:19:14.899Z,20.80
2018-06-14T11:21:46.475Z,20.80
2018-06-14T11:24:16.932Z,20.90
2018-06-14T11:26:47.920Z,21.00
2018-06-14T11:29:18.599Z,21.10
2018-06-14T11:31:49.794Z,21.00
2018-06-14T11:34:20.286Z,20.80
2018-06-14T11:39:20.885Z,20.80
2018-06-14T11:41:51.491Z,20.70
2018-06-14T11:44:25.253Z,20.40
2018-06-14T11:46:56.395Z,20.50
2018-06-14T11:49:26.840Z,20.70
2018-06-14T11:51:57.300Z,20.90
2018-06-14T11:54:29.407Z,21.00
2018-06-14T11:56:59.942Z,21.00
2018-06-14T11:59:30.375Z,21.10
2018-06-14T12:02:01.496Z,21.20
2018-06-14T12:04:31.898Z,21.20
2018-06-14T12:07:02.296Z,21.20
2018-06-14T12:09:32.890Z,21.30
2018-06-14T12:12:03.707Z,21.20
2018-06-14T12:14:34.392Z,20.80
2018-06-14T12:17:04.857Z,20.60
2018-06-14T12:19:35.999Z,20.50
2018-06-14T12:22:07.005Z,20.50
2018-06-14T12:24:38.997Z,20.60
2018-06-14T12:27:11.074Z,20.70
2018-06-14T12:29:41.544Z,20.90
2018-06-14T12:34:42.382Z,21.20
2018-06-14T12:37:13.593Z,21.20
2018-06-14T12:39:44.345Z,21.30
2018-06-14T12:42:15.814Z,21.30
2018-06-14T12:44:46.728Z,21.30
2018-06-14T12:47:18.637Z,21.30
2018-06-14T12:49:49.771Z,21.20
2018-06-14T12:52:22.003Z,21.20
2018-06-14T12:54:52.830Z,21.00
2018-06-14T12:57:27.209Z,21.00
2018-06-14T12:59:57.838Z,20.90
2018-06-14T13:02:29.261Z,21.10
2018-06-14T13:04:59.892Z,21.10
2018-06-14T13:07:30.356Z,21.20
2018-06-14T13:10:03.585Z,21.30
2018-06-14T13:12:34.412Z,21.30
2018-06-14T13:15:04.887Z,21.30
2018-06-14T13:17:35.252Z,21.20
2018-06-14T13:20:05.735Z,21.20
2018-06-14T13:22:36.160Z,21.30
2018-06-14T13:25:06.547Z,21.40
2018-06-14T13:27:37.072Z,21.40
2018-06-14T13:30:08.388Z,21.40
2018-06-14T13:32:38.760Z,21.30
2018-06-14T13:35:10.954Z,21.40
2018-06-14T13:37:42.341Z,21.50
2018-06-14T13:40:14.488Z,21.50
2018-06-14T13:42:45.073Z,21.60
2018-06-14T13:45:15.901Z,21.60
2018-06-14T13:47:48.221Z,21.50
2018-06-14T13:50:21.544Z,21.50
2018-06-14T13:52:51.957Z,21.30
2018-06-14T13:55:23.203Z,21.30
2018-06-14T13:57:53.799Z,21.30
2018-06-14T14:00:24.119Z,21.30
2018-06-14T14:02:54.530Z,21.40
2018-06-14T14:05:25.185Z,21.50
2018-06-14T14:07:56.343Z,21.70
2018-06-14T14:10:29.413Z,21.80
2018-06-14T14:13:06.302Z,21.90
2018-06-14T14:15:40.774Z,21.90
2018-06-14T14:18:12.763Z,22.00
2018-06-14T14:20:45.222Z,22.10
2018-06-14T14:23:18.358Z,22.20
2018-06-14T14:25:49.337Z,22.20
2018-06-14T14:28:22.021Z,22.20
2018-06-14T14:30:54.589Z,22.30
2018-06-14T14:33:25.642Z,22.30
2018-06-14T14:35:59.534Z,22.30
2018-06-14T14:38:32.722Z,22.30
2018-06-14T14:41:05.393Z,22.40
2018-06-14T14:43:48.312Z,22.40
2018-06-14T14:46:19.990Z,22.20
2018-06-14T14:48:52.363Z,22.10
2018-06-14T14:51:25.694Z,22.00
2018-06-14T14:53:58.176Z,22.00
2018-06-14T14:56:52.169Z,21.90
2018-06-14T14:59:29.583Z,21.90
2018-06-14T15:02:01.151Z,21.90
2018-06-14T15:04:41.297Z,21.80
2018-06-14T15:07:13.313Z,21.90
2018-06-14T15:09:44.662Z,21.90
2018-06-14T15:12:17.189Z,21.90
2018-06-14T15:14:49.077Z,21.80
2018-06-14T15:17:20.792Z,21.80
2018-06-14T15:19:53.596Z,21.70
2018-06-14T15:22:26.350Z,21.80
2018-06-14T15:24:57.652Z,21.80
2018-06-14T15:27:31.708Z,21.80
2018-06-14T15:30:04.747Z,21.80
2018-06-14T15:32:37.221Z,21.50
2018-06-14T15:35:10.037Z,21.50
2018-06-14T15:37:41.352Z,21.50
2018-06-14T15:40:12.847Z,21.60
2018-06-14T15:42:45.785Z,21.60
2018-06-14T15:45:18.453Z,21.60
2018-06-14T15:47:51.064Z,21.50
2018-06-14T15:50:23.390Z,21.50
2018-06-14T15:52:56.021Z,21.50
2018-06-14T15:56:37.704Z,21.50
2018-06-14T15:59:12.475Z,21.50
2018-06-14T16:01:44.253Z,21.40
2018-06-14T16:04:17.213Z,21.50
2018-06-14T16:06:51.008Z,21.50
2018-06-14T16:09:30.201Z,21.60
2018-06-14T16:12:04.431Z,21.50
2018-06-14T16:14:37.592Z,21.50
2018-06-14T16:17:09.299Z,21.60
2018-06-14T16:19:47.102Z,21.50
2018-06-14T16:22:19.556Z,21.50
2018-06-14T16:24:51.872Z,21.40
2018-06-14T16:27:24.701Z,21.40
2018-06-14T16:29:57.125Z,21.40
2018-06-14T16:32:29.084Z,21.40
2018-06-14T16:35:01.783Z,21.50
2018-06-14T16:37:33.581Z,21.50
2018-06-14T16:40:06.918Z,21.50
2018-06-14T16:45:09.875Z,21.50
2018-06-14T16:47:41.338Z,21.60
2018-06-14T16:50:13.248Z,21.50
2018-06-14T16:55:13.764Z,21.50
2018-06-14T16:57:44.974Z,21.50
2018-06-14T17:00:15.474Z,21.50
2018-06-14T17:05:16.651Z,21.60
2018-06-14T17:07:46.993Z,21.50
2018-06-14T17:10:18.324Z,21.50
2018-06-14T17:12:48.752Z,21.50
2018-06-14T17:15:19.252Z,21.40
2018-06-14T17:17:49.679Z,21.40
2018-06-14T17:20:20.140Z,21.40
2018-06-14T17:22:50.661Z,21.40
2018-06-14T17:25:21.174Z,21.30
2018-06-14T17:27:51.879Z,21.30
2018-06-14T17:30:22.486Z,21.30
2018-06-14T17:32:53.077Z,21.30
2018-06-14T17:35:24.173Z,21.20
2018-06-14T17:37:55.096Z,21.30
2018-06-14T17:40:26.912Z,21.20
2018-06-14T17:42:57.385Z,21.10
2018-06-14T17:45:27.719Z,21.20
2018-06-14T17:47:58.181Z,21.10
2018-06-14T17:50:28.689Z,21.10
2018-06-14T17:52:59.954Z,21.10
2018-06-14T17:55:30.473Z,21.10
2018-06-14T17:58:00.936Z,21.00
2018-06-14T18:00:31.936Z,21.00
2018-06-14T18:03:02.923Z,21.00
2018-06-14T18:05:33.478Z,21.00
2018-06-14T18:08:03.985Z,21.00
2018-06-14T18:10:34.395Z,20.90
2018-06-14T18:13:04.981Z,20.80
2018-06-14T18:15:35.446Z,20.80
2018-06-14T18:18:05.975Z,20.80
2018-06-14T18:20:36.488Z,20.70
2018-06-14T18:23:06.984Z,20.70
2018-06-14T18:25:38.170Z,20.60
2018-06-14T18:28:08.779Z,20.50
2018-06-14T18:30:44.476Z,20.50
2018-06-14T18:33:23.961Z,20.50
2018-06-14T18:35:56.737Z,20.50
2018-06-14T18:38:29.731Z,20.40
2018-06-14T18:41:04.651Z,20.40
2018-06-14T18:43:35.077Z,20.30
2018-06-14T18:46:05.783Z,20.20
2018-06-14T18:48:37.054Z,20.20
2018-06-14T18:51:08.315Z,20.10
2018-06-14T18:56:08.902Z,19.90
2018-06-14T18:58:39.312Z,19.80
2018-06-14T19:01:09.833Z,19.80
2018-06-14T19:03:40.335Z,19.80
2018-06-14T19:06:10.782Z,19.70
2018-06-14T19:08:41.186Z,19.70
2018-06-14T19:11:12.037Z,19.60
2018-06-14T19:13:42.547Z,19.60
2018-06-14T19:16:13.331Z,19.60
2018-06-14T19:18:43.807Z,19.60
2018-06-14T19:21:14.253Z,19.60
2018-06-14T19:23:44.680Z,19.50
2018-06-14T19:26:15.205Z,19.50
2018-06-14T19:28:45.668Z,19.40
2018-06-14T19:31:16.216Z,19.40
2018-06-14T19:33:47.227Z,19.40
2018-06-14T19:36:17.711Z,19.40
2018-06-14T19:38:48.240Z,19.30
2018-06-14T19:41:18.696Z,19.30
2018-06-14T19:43:54.096Z,19.30
2018-06-14T19:48:54.596Z,19.30
2018-06-14T19:51:25.009Z,19.30
2018-06-14T19:53:55.416Z,19.30
2018-06-14T19:56:25.840Z,19.40
2018-06-14T19:58:56.238Z,19.30
2018-06-14T20:01:27.018Z,19.30
2018-06-14T20:03:58.412Z,19.20
2018-06-14T20:06:29.877Z,19.10
2018-06-14T20:09:00.437Z,19.10
2018-06-14T20:11:31.320Z,19.10
2018-06-14T20:14:01.910Z,19.00
2018-06-14T20:16:34.842Z,19.00
2018-06-14T20:19:05.417Z,19.00
2018-06-14T20:21:36.174Z,18.90
2018-06-14T20:24:07.327Z,18.80
2018-06-14T20:26:38.021Z,18.70
2018-06-14T20:29:08.481Z,18.70
2018-06-14T20:31:39.433Z,18.70
2018-06-14T20:34:10.606Z,18.70
2018-06-14T20:36:41.036Z,18.60
2018-06-14T20:41:44.487Z,18.70
2018-06-14T20:44:15.180Z,18.60
2018-06-14T20:46:45.700Z,18.60
2018-06-14T20:49:16.256Z,18.60
2018-06-14T20:51:46.812Z,18.60
2018-06-14T20:54:17.395Z,18.50
2018-06-14T20:56:47.934Z,18.40
2018-06-14T20:59:18.348Z,18.40
2018-06-14T21:01:48.899Z,18.30
2018-06-14T21:04:20.156Z,18.30
2018-06-14T21:06:50.853Z,18.30
2018-06-14T21:09:21.280Z,18.30
2018-06-14T21:11:51.766Z,18.30
2018-06-14T21:14:22.285Z,18.30
2018-06-14T21:16:53.590Z,18.30
2018-06-14T21:19:24.084Z,18.30
2018-06-14T21:21:54.478Z,18.20
2018-06-14T21:24:24.865Z,18.20
2018-06-14T21:26:55.232Z,18.30
2018-06-14T21:29:25.687Z,18.30
2018-06-14T21:31:56.272Z,18.20
2018-06-14T21:34:26.938Z,18.20
2018-06-14T21:36:57.413Z,18.10
2018-06-14T21:39:27.899Z,18.00
2018-06-14T21:41:58.290Z,18.00
2018-06-14T21:44:29.893Z,18.10
2018-06-14T21:47:00.765Z,18.10
2018-06-14T21:52:01.622Z,18.00
2018-06-14T21:54:32.107Z,17.90
2018-06-14T21:57:02.560Z,17.80
2018-06-14T21:59:33.328Z,17.80
2018-06-14T22:02:03.838Z,17.70
2018-06-14T22:04:34.363Z,17.70
2018-06-14T22:07:04.797Z,17.70
2018-06-14T22:09:35.341Z,17.70
2018-06-14T22:12:05.775Z,17.60
2018-06-14T22:14:36.290Z,17.60
2018-06-14T22:17:06.810Z,17.60
2018-06-14T22:19:37.317Z,17.50
2018-06-14T22:22:08.010Z,17.50
2018-06-14T22:24:38.474Z,17.40
2018-06-14T22:27:09.463Z,17.30
2018-06-14T22:29:39.897Z,17.40
2018-06-14T22:32:10.405Z,17.40
2018-06-14T22:34:57.703Z,17.40
2018-06-14T22:37:28.153Z,17.50
2018-06-14T22:39:58.659Z,17.50
2018-06-14T22:42:29.726Z,17.50
2018-06-14T22:45:00.253Z,17.50
2018-06-14T22:50:00.821Z,17.50
2018-06-14T22:53:05.077Z,17.50
2018-06-14T22:55:35.662Z,17.50
2018-06-14T22:58:06.197Z,17.50
2018-06-14T23:01:33.660Z,17.40
2018-06-14T23:04:04.115Z,17.30
2018-06-14T23:06:36.985Z,17.20
2018-06-14T23:10:28.027Z,17.10
2018-06-14T23:12:58.445Z,17.00
2018-06-14T23:15:29.061Z,17.10
2018-06-14T23:18:00.336Z,17.10
2018-06-14T23:20:32.141Z,17.10
2018-06-14T23:23:03.156Z,17.10
2018-06-14T23:25:34.493Z,17.10
2018-06-14T23:28:05.339Z,17.10
2018-06-14T23:30:35.987Z,17.10
2018-06-14T23:33:06.396Z,17.10
2018-06-14T23:35:36.911Z,17.10
2018-06-14T23:38:07.386Z,17.10
2018-06-14T23:40:37.827Z,17.10
2018-06-14T23:43:08.359Z,17.10
2018-06-14T23:45:38.811Z,17.10
2018-06-14T23:48:09.359Z,17.00
2018-06-14T23:50:39.885Z,17.00
2018-06-14T23:53:10.368Z,17.00
2018-06-14T23:55:40.929Z,17.00
2018-06-14T23:58:12.299Z,16.90
